Time;durP1;ratioP1;P1;durP2;ratioP2;P2;SDS_P1;SDS_P2;PMS_P1;PMS_P2;Temp;Humidity;BMP_temperature;BMP_pressure;BME280_temperature;BME280_humidity;BME280_pressure;Samples;Min_cycle;Max_cycle;Signal;HPM_P1;HPM_P2
2021/12/12 00:01:35;;;;;;;39.15;15.05;;;;;;;;;;4972659;28;97170;-74
2021/12/12 00:04:12;;;;;;;37.55;15.30;;;;;;;;;;4974568;28;96417;-74
2021/12/12 00:06:44;;;;;;;36.58;15.27;;;;;;;;;;4981986;28;97261;-74
2021/12/12 00:09:13;;;;;;;43.55;15.05;;;;;;;;;;4983088;28;97364;-74
2021/12/12 00:11:41;;;;;;;43.88;15.63;;;;;;;;;;4974409;28;95407;-75
2021/12/12 00:14:10;;;;;;;39.05;15.43;;;;;;;;;;4970142;28;97218;-75
2021/12/12 00:16:36;;;;;;;47.28;15.60;;;;;;;;;;4972189;28;97338;-74
2021/12/12 00:19:04;;;;;;;32.22;15.52;;;;;;;;;;4974133;28;95495;-75
2021/12/12 00:21:32;;;;;;;44.75;15.20;;;;;;;;;;4971858;28;98552;-75
2021/12/12 00:23:58;;;;;;;42.20;14.73;;;;;;;;;;4970845;28;96462;-76
2021/12/12 00:26:24;;;;;;;41.45;14.93;;;;;;;;;;4971645;28;96784;-75
2021/12/12 00:28:51;;;;;;;37.90;15.00;;;;;;;;;;4984021;28;97454;-75
2021/12/12 00:31:19;;;;;;;42.00;14.52;;;;;;;;;;4951837;28;95647;-75
2021/12/12 00:33:49;;;;;;;40.25;14.25;;;;;;;;;;4952153;28;96883;-75
2021/12/12 00:36:17;;;;;;;38.20;13.82;;;;;;;;;;4987748;28;97331;-76
2021/12/12 00:38:49;;;;;;;33.70;14.45;;;;;;;;;;4955241;28;95427;-76
2021/12/12 00:41:19;;;;;;;35.03;13.25;;;;;;;;;;4957784;28;95451;-76
2021/12/12 00:43:50;;;;;;;35.10;13.20;;;;;;;;;;4955797;28;95456;-76
2021/12/12 00:46:17;;;;;;;32.83;12.77;;;;;;;;;;4956179;28;96436;-76
2021/12/12 00:48:44;;;;;;;35.38;13.85;;;;;;;;;;4962676;28;97251;-75
2021/12/12 00:51:12;;;;;;;36.72;13.82;;;;;;;;;;4975293;28;94902;-76
2021/12/12 00:53:39;;;;;;;37.92;13.32;;;;;;;;;;4977407;28;95937;-76
2021/12/12 00:56:07;;;;;;;33.75;12.45;;;;;;;;;;4993365;28;97626;-76
2021/12/12 00:58:34;;;;;;;33.83;12.05;;;;;;;;;;4981074;28;95348;-75
2021/12/12 01:01:13;;;;;;;29.63;13.13;;;;;;;;;;4957674;28;97067;-75
2021/12/12 01:03:43;;;;;;;30.85;12.48;;;;;;;;;;4986878;28;95324;-75
2021/12/12 01:06:12;;;;;;;37.63;12.57;;;;;;;;;;5001336;28;96753;-76
2021/12/12 01:08:39;;;;;;;35.60;11.57;;;;;;;;;;4976117;28;97337;-76
2021/12/12 01:11:09;;;;;;;30.83;12.13;;;;;;;;;;4975005;28;95354;-76
2021/12/12 01:13:35;;;;;;;34.60;11.70;;;;;;;;;;4974956;28;95179;-76
2021/12/12 01:16:11;;;;;;;39.22;11.20;;;;;;;;;;4987394;28;97280;-76
2021/12/12 01:18:40;;;;;;;35.10;11.65;;;;;;;;;;4990161;28;95169;-76
2021/12/12 01:21:16;;;;;;;31.63;10.85;;;;;;;;;;4960154;28;97260;-76
2021/12/12 01:23:44;;;;;;;43.30;11.82;;;;;;;;;;4957630;28;97297;-76
2021/12/12 01:26:12;;;;;;;26.45;9.27;;;;;;;;;;4955252;28;96758;-76
2021/12/12 01:28:43;;;;;;;36.45;10.40;;;;;;;;;;4976204;28;97394;-76
2021/12/12 01:31:13;;;;;;;31.35;10.13;;;;;;;;;;4974263;28;95208;-76
2021/12/12 01:33:40;;;;;;;27.73;10.70;;;;;;;;;;4973931;28;98315;-76
2021/12/12 01:36:12;;;;;;;29.42;10.35;;;;;;;;;;5006095;28;97485;-76
2021/12/12 01:38:55;;;;;;;32.63;10.88;;;;;;;;;;4973599;28;95369;-76
2021/12/12 01:41:24;;;;;;;25.80;10.00;;;;;;;;;;4954856;28;95812;-76
2021/12/12 01:43:53;;;;;;;37.20;11.43;;;;;;;;;;4954701;28;96211;-76
2021/12/12 01:46:23;;;;;;;27.17;10.48;;;;;;;;;;4979699;28;95427;-77
2021/12/12 01:48:58;;;;;;;40.70;11.90;;;;;;;;;;4971068;28;97296;-76
2021/12/12 01:51:26;;;;;;;40.15;11.55;;;;;;;;;;4982241;28;96601;-77
2021/12/12 01:53:55;;;;;;;35.85;11.02;;;;;;;;;;4994125;28;96594;-76
2021/12/12 01:56:24;;;;;;;37.40;10.48;;;;;;;;;;4993079;28;97320;-78
2021/12/12 01:58:55;;;;;;;33.88;10.75;;;;;;;;;;4954422;28;95727;-77
2021/12/12 02:01:24;;;;;;;31.52;10.73;;;;;;;;;;4961018;28;97224;-78
2021/12/12 02:04:01;;;;;;;33.25;11.48;;;;;;;;;;4973648;28;97604;-78
2021/12/12 02:06:28;;;;;;;28.90;11.10;;;;;;;;;;4973052;28;95266;-77
2021/12/12 02:08:56;;;;;;;38.58;11.50;;;;;;;;;;4957891;28;95879;-78
2021/12/12 02:11:25;;;;;;;31.05;11.07;;;;;;;;;;4954486;28;95436;-77
2021/12/12 02:13:53;;;;;;;44.97;11.85;;;;;;;;;;4972020;28;96851;-77
2021/12/12 02:16:22;;;;;;;40.25;11.63;;;;;;;;;;4973460;28;97460;-77
2021/12/12 02:18:53;;;;;;;37.55;11.70;;;;;;;;;;4974147;28;95443;-78
2021/12/12 02:21:26;;;;;;;35.63;11.43;;;;;;;;;;4973746;28;97543;-78
2021/12/12 02:37:42;;;;;;;39.53;11.63;;;;;;;;;;4967942;28;97349;-77
2021/12/12 02:40:12;;;;;;;46.75;13.45;;;;;;;;;;4992238;28;95210;-76
2021/12/12 02:42:39;;;;;;;34.58;12.20;;;;;;;;;;4991767;28;96958;-78
2021/12/12 02:45:08;;;;;;;46.30;13.50;;;;;;;;;;4974407;28;97282;-79
2021/12/12 02:47:35;;;;;;;41.53;13.13;;;;;;;;;;4973112;28;95434;-79
2021/12/12 02:50:20;;;;;;;38.13;13.60;;;;;;;;;;4983511;28;97039;-78
2021/12/12 02:52:50;;;;;;;45.95;14.90;;;;;;;;;;4987750;28;96615;-78
2021/12/12 02:55:19;;;;;;;35.25;12.88;;;;;;;;;;4967067;28;95180;-79
2021/12/12 02:57:46;;;;;;;45.90;13.57;;;;;;;;;;4953053;28;97364;-76
2021/12/12 03:00:14;;;;;;;46.45;14.65;;;;;;;;;;4953892;28;95329;-76
2021/12/12 03:02:45;;;;;;;43.97;13.82;;;;;;;;;;4982704;28;96916;-76
2021/12/12 03:05:13;;;;;;;43.78;15.05;;;;;;;;;;4953513;28;96979;-75
2021/12/12 03:07:40;;;;;;;41.75;14.52;;;;;;;;;;4953978;28;95401;-79
2021/12/12 03:10:09;;;;;;;46.35;16.33;;;;;;;;;;4953038;28;97393;-77
2021/12/12 03:12:36;;;;;;;45.53;16.30;;;;;;;;;;4969519;28;97664;-78
2021/12/12 03:15:05;;;;;;;42.80;15.60;;;;;;;;;;4976652;28;95143;-78
2021/12/12 03:17:32;;;;;;;46.92;16.77;;;;;;;;;;4972363;28;97481;-79
2021/12/12 03:20:01;;;;;;;44.30;15.23;;;;;;;;;;4973057;28;95349;-78
2021/12/12 03:22:27;;;;;;;35.05;14.30;;;;;;;;;;4971144;28;96877;-78
2021/12/12 03:24:54;;;;;;;36.75;15.30;;;;;;;;;;4986744;28;97409;-78
2021/12/12 03:27:21;;;;;;;41.90;15.98;;;;;;;;;;4991498;28;95433;-76
2021/12/12 03:29:48;;;;;;;36.85;15.50;;;;;;;;;;4991138;28;96947;-77
2021/12/12 03:32:16;;;;;;;38.20;15.95;;;;;;;;;;4985320;28;97201;-76
2021/12/12 03:34:47;;;;;;;37.35;15.40;;;;;;;;;;5004912;28;95455;-75
2021/12/12 03:37:15;;;;;;;50.93;17.67;;;;;;;;;;4992575;28;96886;-75
2021/12/12 03:39:43;;;;;;;45.75;16.05;;;;;;;;;;4991658;28;95324;-76
2021/12/12 03:42:12;;;;;;;43.03;17.48;;;;;;;;;;4986972;28;96869;-76
2021/12/12 03:44:39;;;;;;;29.75;15.52;;;;;;;;;;4979569;28;97434;-75
2021/12/12 03:47:08;;;;;;;40.00;16.63;;;;;;;;;;4992404;28;95291;-78
2021/12/12 03:49:37;;;;;;;43.63;17.83;;;;;;;;;;4971566;28;97104;-76
2021/12/12 03:52:05;;;;;;;51.00;18.50;;;;;;;;;;4970661;28;97372;-76
2021/12/12 03:54:32;;;;;;;53.13;18.95;;;;;;;;;;4972131;28;95376;-75
2021/12/12 03:56:59;;;;;;;48.10;18.75;;;;;;;;;;4972870;28;97284;-76
2021/12/12 03:59:25;;;;;;;50.17;19.73;;;;;;;;;;4974961;28;97075;-76
2021/12/12 04:01:52;;;;;;;54.35;19.15;;;;;;;;;;4985066;28;95972;-75
2021/12/12 04:04:20;;;;;;;59.10;21.40;;;;;;;;;;4971006;28;97554;-75
2021/12/12 04:06:47;;;;;;;49.97;19.75;;;;;;;;;;4972236;28;95368;-75
2021/12/12 04:09:14;;;;;;;46.33;20.05;;;;;;;;;;4972346;28;96168;-75
2021/12/12 04:11:43;;;;;;;41.90;19.77;;;;;;;;;;4973007;28;97185;-75
2021/12/12 04:14:10;;;;;;;51.90;17.92;;;;;;;;;;4981867;28;95415;-76
2021/12/12 04:16:38;;;;;;;56.53;20.73;;;;;;;;;;4972489;28;96768;-75
2021/12/12 04:19:05;;;;;;;58.30;21.75;;;;;;;;;;4965008;28;97516;-76
2021/12/12 04:21:32;;;;;;;53.95;23.60;;;;;;;;;;4956150;28;95363;-76
2021/12/12 04:23:59;;;;;;;50.10;21.17;;;;;;;;;;4969033;28;96761;-78
2021/12/12 04:26:33;;;;;;;54.67;23.05;;;;;;;;;;4991263;28;95383;-78
2021/12/12 04:29:03;;;;;;;60.85;23.17;;;;;;;;;;4987473;28;95811;-76
2021/12/12 04:31:30;;;;;;;60.40;23.65;;;;;;;;;;4972085;28;98275;-76
2021/12/12 04:33:56;;;;;;;65.22;24.55;;;;;;;;;;4979317;28;95282;-76
2021/12/12 04:36:24;;;;;;;50.47;22.25;;;;;;;;;;4990658;28;96772;-77
2021/12/12 04:38:50;;;;;;;67.07;24.40;;;;;;;;;;4986937;28;97375;-76
2021/12/12 04:41:21;;;;;;;66.28;25.33;;;;;;;;;;4971469;28;95475;-77
2021/12/12 04:43:48;;;;;;;53.15;22.85;;;;;;;;;;4976022;28;96920;-77
2021/12/12 04:46:21;;;;;;;50.42;22.90;;;;;;;;;;4983896;28;95222;-77
2021/12/12 04:51:46;;;;;;;56.20;24.83;;;;;;;;;;4983650;28;97292;-76
2021/12/12 04:54:34;;;;;;;61.75;23.63;;;;;;;;;;4990838;28;95374;-77
2021/12/12 04:57:04;;;;;;;60.33;26.05;;;;;;;;;;4987346;28;97857;-76
2021/12/12 04:59:45;;;;;;;54.05;24.75;;;;;;;;;;4971425;28;97159;-77
2021/12/12 05:02:30;;;;;;;60.65;25.83;;;;;;;;;;5002651;28;95425;-78
2021/12/12 05:05:00;;;;;;;64.30;25.63;;;;;;;;;;4972097;28;96787;-77
2021/12/12 05:07:43;;;;;;;52.70;26.25;;;;;;;;;;4974223;28;95385;-78
2021/12/12 05:10:27;;;;;;;56.33;26.63;;;;;;;;;;4968226;28;96644;-77
2021/12/12 05:13:01;;;;;;;60.20;25.30;;;;;;;;;;4974953;28;97313;-76
2021/12/12 05:15:36;;;;;;;60.20;26.27;;;;;;;;;;4990833;28;95253;-77
2021/12/12 05:18:05;;;;;;;67.03;26.63;;;;;;;;;;4991507;28;96926;-77
2021/12/12 05:20:35;;;;;;;65.30;26.50;;;;;;;;;;4972033;28;97541;-77
2021/12/12 05:23:04;;;;;;;64.78;26.20;;;;;;;;;;4983085;28;97136;-77
2021/12/12 05:25:39;;;;;;;69.90;26.40;;;;;;;;;;4985784;28;95923;-77
2021/12/12 05:28:07;;;;;;;74.18;27.88;;;;;;;;;;4977447;28;97813;-77
2021/12/12 05:30:35;;;;;;;57.38;25.35;;;;;;;;;;4972960;28;97060;-77
2021/12/12 05:33:01;;;;;;;70.10;27.67;;;;;;;;;;4976617;28;97167;-77
2021/12/12 05:35:30;;;;;;;70.93;28.52;;;;;;;;;;4994508;28;95320;-76
2021/12/12 05:37:58;;;;;;;59.80;26.33;;;;;;;;;;4982685;28;96861;-76
2021/12/12 05:40:25;;;;;;;59.05;27.10;;;;;;;;;;4962979;28;97420;-78
2021/12/12 05:42:54;;;;;;;78.25;28.63;;;;;;;;;;4974198;28;95300;-77
2021/12/12 05:45:20;;;;;;;74.38;29.52;;;;;;;;;;4972339;28;96873;-76
2021/12/12 05:47:47;;;;;;;75.45;28.20;;;;;;;;;;4969149;28;97315;-76
2021/12/12 05:50:14;;;;;;;72.03;26.58;;;;;;;;;;4997012;28;95369;-77
2021/12/12 05:52:41;;;;;;;62.53;25.20;;;;;;;;;;4983809;28;97855;-77
2021/12/12 05:55:10;;;;;;;78.85;29.15;;;;;;;;;;4990980;28;95168;-77
2021/12/12 05:57:36;;;;;;;78.82;28.80;;;;;;;;;;4979324;28;96904;-78
2021/12/12 06:00:09;;;;;;;73.00;29.33;;;;;;;;;;4954789;28;97652;-77
2021/12/12 06:02:36;;;;;;;77.40;28.25;;;;;;;;;;4954644;28;95010;-77
2021/12/12 06:05:03;;;;;;;81.78;28.98;;;;;;;;;;4967108;28;96825;-77
2021/12/12 06:07:30;;;;;;;86.18;30.20;;;;;;;;;;4979058;28;97431;-78
2021/12/12 06:09:57;;;;;;;69.80;27.70;;;;;;;;;;4983810;28;95306;-75
2021/12/12 06:12:28;;;;;;;79.90;28.27;;;;;;;;;;4975816;28;96111;-74
2021/12/12 06:14:57;;;;;;;95.35;29.48;;;;;;;;;;4950148;28;95101;-75
2021/12/12 06:17:31;;;;;;;85.78;29.52;;;;;;;;;;4966353;28;96772;-75
2021/12/12 06:20:00;;;;;;;84.55;28.50;;;;;;;;;;4953847;28;96696;-75
2021/12/12 06:22:33;;;;;;;93.30;29.95;;;;;;;;;;4960742;28;95536;-75
2021/12/12 06:25:01;;;;;;;;;;;;;;;;;;4954357;28;96161;-74
2021/12/12 06:27:29;;;;;;;85.28;28.15;;;;;;;;;;4938919;28;126040;-76
2021/12/12 06:29:57;;;;;;;78.30;28.10;;;;;;;;;;4965379;28;95677;-76
2021/12/12 06:32:27;;;;;;;100.55;31.85;;;;;;;;;;4942725;28;96125;-75
2021/12/12 06:35:12;;;;;;;88.90;29.02;;;;;;;;;;4968672;28;96288;-76
2021/12/12 06:37:41;;;;;;;102.15;31.75;;;;;;;;;;4936806;28;96030;-76
2021/12/12 06:40:09;;;;;;;85.70;29.88;;;;;;;;;;4936261;28;97431;-75
2021/12/12 06:42:36;;;;;;;102.32;31.55;;;;;;;;;;4973879;28;95290;-80
2021/12/12 06:45:03;;;;;;;112.82;32.92;;;;;;;;;;4954221;28;97044;-77
2021/12/12 06:47:30;;;;;;;90.30;30.50;;;;;;;;;;4961260;28;97325;-77
2021/12/12 06:49:59;;;;;;;111.32;34.20;;;;;;;;;;4965673;28;95479;-76
2021/12/12 06:52:25;;;;;;;101.25;31.65;;;;;;;;;;4950590;28;96758;-77
2021/12/12 06:54:52;;;;;;;104.55;31.75;;;;;;;;;;4953447;28;97398;-76
2021/12/12 06:57:19;;;;;;;134.20;33.05;;;;;;;;;;4955262;28;95344;-76
2021/12/12 06:59:47;;;;;;;134.70;32.55;;;;;;;;;;4941103;28;97469;-76
2021/12/12 07:02:14;;;;;;;137.90;35.47;;;;;;;;;;4933616;28;95564;-76
2021/12/12 07:04:41;;;;;;;119.97;34.63;;;;;;;;;;4934576;28;96920;-76
2021/12/12 07:07:09;;;;;;;139.80;37.47;;;;;;;;;;4933786;28;97488;-76
2021/12/12 07:09:36;;;;;;;125.07;33.72;;;;;;;;;;4946126;28;95751;-76
2021/12/12 07:12:05;;;;;;;129.20;36.15;;;;;;;;;;4953795;28;97005;-75
2021/12/12 07:14:33;;;;;;;135.27;34.88;;;;;;;;;;4950562;28;96233;-76
2021/12/12 07:17:00;;;;;;;147.35;38.05;;;;;;;;;;4956777;28;95601;-77
2021/12/12 07:19:27;;;;;;;143.38;37.33;;;;;;;;;;4952582;28;97510;-77
2021/12/12 07:21:53;;;;;;;160.32;37.92;;;;;;;;;;4965155;28;95261;-76
2021/12/12 07:24:22;;;;;;;168.10;39.78;;;;;;;;;;4972710;28;96752;-76
2021/12/12 15:55:22;;;;;;;203.13;36.10;;;;;;;;;;5048907;27;95181;-75
2021/12/12 15:57:50;;;;;;;163.88;34.35;;;;;;;;;;5047102;27;97359;-76
2021/12/12 16:00:26;;;;;;;153.63;34.35;;;;;;;;;;5048194;27;97068;-77
2021/12/12 16:03:08;;;;;;;177.07;32.00;;;;;;;;;;5047590;27;96761;-75
2021/12/12 16:05:36;;;;;;;175.77;34.25;;;;;;;;;;5046731;27;97446;-76
2021/12/12 16:08:06;;;;;;;181.80;31.77;;;;;;;;;;5030554;27;95653;-76
2021/12/12 16:10:41;;;;;;;174.02;32.17;;;;;;;;;;5037271;27;97703;-77
2021/12/12 16:13:11;;;;;;;170.07;31.15;;;;;;;;;;5047498;27;97591;-76
2021/12/12 16:15:39;;;;;;;166.73;29.85;;;;;;;;;;5051199;27;95268;-77
2021/12/12 16:18:06;;;;;;;182.95;30.08;;;;;;;;;;5045996;27;97277;-76
2021/12/12 16:20:37;;;;;;;153.75;30.55;;;;;;;;;;5047836;27;95228;-74
2021/12/12 16:23:07;;;;;;;182.88;30.92;;;;;;;;;;5046934;27;96802;-75
2021/12/12 16:25:35;;;;;;;202.45;33.88;;;;;;;;;;5047463;27;97390;-76
2021/12/12 16:28:05;;;;;;;155.30;28.98;;;;;;;;;;5047286;27;95440;-75
2021/12/12 16:30:34;;;;;;;168.50;30.98;;;;;;;;;;5047229;27;96781;-76
2021/12/12 16:33:03;;;;;;;129.80;28.48;;;;;;;;;;5046443;27;97520;-74
2021/12/12 16:35:35;;;;;;;200.65;32.28;;;;;;;;;;5048132;27;95167;-76
2021/12/12 16:38:07;;;;;;;217.45;33.35;;;;;;;;;;5049260;27;98309;-76
2021/12/12 16:40:33;;;;;;;;;;;;;;;;;;5046547;27;95186;-76
2021/12/12 16:43:02;;;;;;;219.63;33.10;;;;;;;;;;5047820;27;125847;-76
2021/12/12 16:45:32;;;;;;;220.57;33.13;;;;;;;;;;5045870;27;97407;-77
2021/12/12 16:48:00;;;;;;;215.60;33.08;;;;;;;;;;5045583;27;95368;-76
2021/12/12 16:50:30;;;;;;;193.57;31.15;;;;;;;;;;5047611;27;96740;-76
2021/12/12 16:52:57;;;;;;;201.60;31.05;;;;;;;;;;5046279;27;97377;-79
2021/12/12 16:55:27;;;;;;;250.70;32.78;;;;;;;;;;5045666;27;95183;-75
2021/12/12 16:57:55;;;;;;;243.93;33.28;;;;;;;;;;5047416;27;95628;-79
2021/12/12 17:00:24;;;;;;;201.55;32.63;;;;;;;;;;5049487;27;98144;-79
2021/12/12 17:02:52;;;;;;;201.25;30.80;;;;;;;;;;5047232;27;96792;-77
2021/12/12 17:05:24;;;;;;;204.13;31.08;;;;;;;;;;5040152;27;97375;-76
2021/12/12 17:07:52;;;;;;;152.75;30.02;;;;;;;;;;5033108;28;95352;-79
2021/12/12 17:10:20;;;;;;;212.27;31.25;;;;;;;;;;5031052;28;96827;-79
2021/12/12 17:12:51;;;;;;;192.60;30.85;;;;;;;;;;5033137;28;97311;-78
2021/12/12 17:15:19;;;;;;;186.32;30.92;;;;;;;;;;5033179;27;96717;-78
2021/12/12 17:17:47;;;;;;;213.80;31.52;;;;;;;;;;5033539;28;96745;-77
2021/12/12 17:20:15;;;;;;;159.00;30.27;;;;;;;;;;5031768;27;97771;-76
2021/12/12 17:23:01;;;;;;;117.25;27.48;;;;;;;;;;5037138;28;95443;-78
2021/12/12 17:25:28;;;;;;;131.68;28.65;;;;;;;;;;5031573;27;97284;-77
2021/12/12 17:27:55;;;;;;;129.05;27.38;;;;;;;;;;5032275;27;95388;-78
2021/12/12 17:30:24;;;;;;;128.93;27.70;;;;;;;;;;5033230;28;101555;-78
2021/12/12 17:32:54;;;;;;;119.80;27.13;;;;;;;;;;5032192;28;96555;-78
2021/12/12 17:35:26;;;;;;;128.10;26.45;;;;;;;;;;5031886;27;95400;-78
2021/12/12 17:37:53;;;;;;;131.93;27.20;;;;;;;;;;5024934;28;96968;-78
2021/12/12 17:40:23;;;;;;;119.03;27.67;;;;;;;;;;5029059;27;97355;-77
2021/12/12 17:42:56;;;;;;;153.70;27.05;;;;;;;;;;5033337;28;95329;-78
2021/12/12 17:45:41;;;;;;;107.50;25.42;;;;;;;;;;5026556;27;96712;-76
2021/12/12 17:48:07;;;;;;;117.38;25.63;;;;;;;;;;5017601;28;95567;-76
2021/12/12 17:50:52;;;;;;;115.55;24.70;;;;;;;;;;5019677;27;97076;-76
2021/12/12 17:53:24;;;;;;;115.90;23.20;;;;;;;;;;5017168;28;97571;-76
2021/12/12 17:55:59;;;;;;;106.43;23.60;;;;;;;;;;5023061;28;95266;-76
2021/12/12 17:58:46;;;;;;;96.35;23.60;;;;;;;;;;5023550;28;96859;-76
2021/12/12 18:01:20;;;;;;;94.43;22.08;;;;;;;;;;5025310;28;97659;-76
2021/12/12 18:03:48;;;;;;;95.37;23.23;;;;;;;;;;5023984;28;96671;-76
2021/12/12 18:06:16;;;;;;;94.47;22.50;;;;;;;;;;5026029;28;96792;-76
2021/12/12 18:08:52;;;;;;;97.32;22.63;;;;;;;;;;5028036;27;96219;-76
2021/12/12 18:11:19;;;;;;;96.38;21.98;;;;;;;;;;5025988;28;97532;-76
2021/12/12 18:13:51;;;;;;;110.18;23.45;;;;;;;;;;5023671;28;97544;-76
2021/12/12 18:16:24;;;;;;;98.22;20.92;;;;;;;;;;5022190;28;95528;-75
2021/12/12 18:19:00;;;;;;;90.38;20.60;;;;;;;;;;5030337;27;97268;-78
2021/12/12 18:21:41;;;;;;;79.15;20.50;;;;;;;;;;5030525;27;96380;-75
2021/12/12 18:24:12;;;;;;;69.40;18.15;;;;;;;;;;5011057;28;95199;-75
2021/12/12 18:26:57;;;;;;;79.60;20.77;;;;;;;;;;5015236;28;95925;-75
2021/12/12 18:29:32;;;;;;;74.38;19.40;;;;;;;;;;5035118;28;97312;-75
2021/12/12 18:31:59;;;;;;;88.72;20.50;;;;;;;;;;5031330;28;96889;-75
2021/12/12 18:34:35;;;;;;;88.32;20.75;;;;;;;;;;5030354;28;97318;-75
2021/12/12 18:37:08;;;;;;;99.35;20.55;;;;;;;;;;5031377;27;95317;-75
2021/12/12 18:39:43;;;;;;;86.13;20.85;;;;;;;;;;5031372;27;97138;-75
2021/12/12 18:42:33;;;;;;;86.28;21.30;;;;;;;;;;5031893;28;97413;-76
2021/12/12 18:45:01;;;;;;;70.53;20.48;;;;;;;;;;5032289;27;95169;-76
2021/12/12 18:47:30;;;;;;;79.60;19.80;;;;;;;;;;5031180;28;96752;-77
2021/12/12 18:49:59;;;;;;;81.57;18.83;;;;;;;;;;5032305;27;97176;-76
2021/12/12 18:52:27;;;;;;;75.75;19.38;;;;;;;;;;5034794;28;95536;-78
2021/12/12 18:55:05;;;;;;;94.50;19.17;;;;;;;;;;5029788;28;97400;-78
2021/12/12 18:57:41;;;;;;;82.18;19.02;;;;;;;;;;5030939;28;95198;-77
2021/12/12 19:00:09;;;;;;;88.47;21.70;;;;;;;;;;5032045;28;96782;-77
2021/12/12 19:02:38;;;;;;;75.55;18.05;;;;;;;;;;5030849;28;97377;-78
2021/12/12 19:05:16;;;;;;;66.40;17.92;;;;;;;;;;5031843;27;95456;-76
2021/12/12 19:07:42;;;;;;;97.10;19.58;;;;;;;;;;5031342;28;96762;-75
2021/12/12 19:10:09;;;;;;;94.53;20.55;;;;;;;;;;5030606;28;97901;-75
2021/12/12 19:12:38;;;;;;;87.22;20.13;;;;;;;;;;5031439;28;95389;-75
2021/12/12 19:15:14;;;;;;;72.68;18.38;;;;;;;;;;5034914;27;97073;-74
2021/12/12 19:17:49;;;;;;;84.68;18.67;;;;;;;;;;5030821;27;95606;-74
2021/12/12 19:20:19;;;;;;;72.90;17.95;;;;;;;;;;5031481;28;96811;-76
2021/12/12 19:22:47;;;;;;;84.03;19.55;;;;;;;;;;5031339;28;97492;-75
2021/12/12 19:25:18;;;;;;;72.53;19.40;;;;;;;;;;5029565;27;95657;-77
2021/12/12 19:27:45;;;;;;;89.68;18.75;;;;;;;;;;5030621;27;96882;-76
2021/12/12 19:30:23;;;;;;;91.38;19.80;;;;;;;;;;5031244;28;97649;-74
2021/12/12 19:32:49;;;;;;;98.07;22.63;;;;;;;;;;5030129;27;95279;-77
2021/12/12 19:35:43;;;;;;;100.32;20.70;;;;;;;;;;5030620;28;97208;-77
2021/12/12 19:38:12;;;;;;;81.97;22.27;;;;;;;;;;5030332;28;97365;-75
2021/12/12 19:40:50;;;;;;;93.63;24.67;;;;;;;;;;5029967;27;97074;-76
2021/12/12 19:43:20;;;;;;;85.70;23.35;;;;;;;;;;5030754;28;97412;-76
2021/12/12 19:45:49;;;;;;;100.70;26.83;;;;;;;;;;5030651;28;97262;-77
2021/12/12 19:48:17;;;;;;;90.57;26.90;;;;;;;;;;5030464;27;96881;-77
2021/12/12 19:51:03;;;;;;;97.95;26.67;;;;;;;;;;5031254;27;97207;-76
2021/12/12 19:53:38;;;;;;;91.47;25.30;;;;;;;;;;5030090;28;95341;-76
2021/12/12 19:56:04;;;;;;;96.10;26.45;;;;;;;;;;5030377;28;95586;-77
2021/12/12 19:58:34;;;;;;;95.85;26.77;;;;;;;;;;5031013;27;97454;-77
2021/12/12 20:01:06;;;;;;;88.22;27.15;;;;;;;;;;5031949;27;96106;-76
2021/12/12 20:03:32;;;;;;;;;;;;;;;;;;5026958;28;97503;-76
2021/12/12 20:06:01;;;;;;;74.13;24.38;;;;;;;;;;5030872;28;118180;-77
2021/12/12 20:08:30;;;;;;;77.93;25.48;;;;;;;;;;5026246;27;96813;-76
2021/12/12 20:11:01;;;;;;;71.55;24.77;;;;;;;;;;5030011;28;97327;-77
2021/12/12 20:13:30;;;;;;;71.00;25.23;;;;;;;;;;5029208;27;97376;-75
2021/12/12 20:15:56;;;;;;;73.15;23.50;;;;;;;;;;5029860;28;98925;-75
2021/12/12 20:18:25;;;;;;;80.82;24.05;;;;;;;;;;5028746;28;96256;-75
2021/12/12 20:20:53;;;;;;;63.17;22.77;;;;;;;;;;5022563;27;95304;-75
2021/12/12 20:23:33;;;;;;;64.45;21.90;;;;;;;;;;5022983;28;97399;-75
2021/12/12 20:26:00;;;;;;;60.95;20.48;;;;;;;;;;5028316;27;95904;-75
2021/12/12 20:28:28;;;;;;;67.43;23.50;;;;;;;;;;5025512;27;96828;-76
2021/12/12 20:31:12;;;;;;;55.20;20.40;;;;;;;;;;5029334;27;97449;-76
2021/12/12 20:33:41;;;;;;;53.50;19.38;;;;;;;;;;5010661;28;95319;-76
2021/12/12 20:36:12;;;;;;;70.38;21.15;;;;;;;;;;5020183;28;96811;-76
2021/12/12 20:38:49;;;;;;;61.17;21.10;;;;;;;;;;5029812;27;97399;-75
2021/12/12 20:41:24;;;;;;;64.25;23.45;;;;;;;;;;5013237;28;95077;-76
2021/12/12 20:43:56;;;;;;;64.00;20.85;;;;;;;;;;5018025;28;96734;-76
2021/12/12 20:46:24;;;;;;;64.75;23.17;;;;;;;;;;5032645;27;95820;-75
2021/12/12 20:48:53;;;;;;;63.90;23.45;;;;;;;;;;5032815;27;97179;-75
2021/12/12 20:51:24;;;;;;;79.25;25.88;;;;;;;;;;5032959;27;97408;-76
2021/12/12 20:53:54;;;;;;;78.68;25.85;;;;;;;;;;5033802;27;95247;-75
2021/12/12 20:56:23;;;;;;;81.47;26.45;;;;;;;;;;5034179;27;96871;-76
2021/12/12 20:58:57;;;;;;;78.97;27.10;;;;;;;;;;5030388;27;97475;-75
2021/12/12 21:01:28;;;;;;;81.55;27.23;;;;;;;;;;5033539;27;95170;-75
2021/12/12 21:04:03;;;;;;;97.45;28.45;;;;;;;;;;5033153;27;96804;-75
2021/12/12 21:06:32;;;;;;;83.13;28.08;;;;;;;;;;5024739;27;97095;-75
2021/12/12 21:09:03;;;;;;;82.85;26.63;;;;;;;;;;5033739;28;96904;-75
2021/12/12 21:11:36;;;;;;;73.40;26.98;;;;;;;;;;5032338;28;97646;-75
2021/12/12 21:14:05;;;;;;;72.00;27.35;;;;;;;;;;5029853;28;95367;-75
2021/12/12 21:16:31;;;;;;;69.22;26.30;;;;;;;;;;5033423;27;96808;-75
2021/12/12 21:19:00;;;;;;;74.10;26.92;;;;;;;;;;5032912;27;97565;-75
2021/12/12 21:21:31;;;;;;;63.88;26.52;;;;;;;;;;5029355;28;96401;-75
2021/12/12 21:24:00;;;;;;;76.00;27.05;;;;;;;;;;5032379;28;97844;-75
2021/12/12 21:26:28;;;;;;;74.20;27.17;;;;;;;;;;5032917;27;97323;-75
2021/12/12 21:29:00;;;;;;;71.00;28.05;;;;;;;;;;5035487;28;95336;-75
2021/12/12 21:31:33;;;;;;;70.40;28.85;;;;;;;;;;5031038;28;98012;-75
2021/12/12 21:34:00;;;;;;;78.05;29.50;;;;;;;;;;5033266;27;95330;-75
2021/12/12 21:36:30;;;;;;;72.60;27.23;;;;;;;;;;5033638;28;96829;-75
2021/12/12 21:39:14;;;;;;;68.30;28.27;;;;;;;;;;5031809;27;97437;-75
2021/12/12 21:41:58;;;;;;;58.25;28.48;;;;;;;;;;5028224;28;95297;-75
2021/12/12 21:44:30;;;;;;;67.57;26.85;;;;;;;;;;5032201;28;96810;-75
2021/12/12 21:47:06;;;;;;;69.97;28.10;;;;;;;;;;5032361;27;97879;-75
2021/12/12 21:49:39;;;;;;;64.72;28.40;;;;;;;;;;5024194;27;95226;-75
2021/12/12 21:52:06;;;;;;;73.57;31.95;;;;;;;;;;5035787;27;96912;-75
2021/12/12 21:54:32;;;;;;;64.53;30.30;;;;;;;;;;5032149;27;95231;-75
2021/12/12 21:57:02;;;;;;;74.43;29.70;;;;;;;;;;5033122;28;97065;-75
2021/12/12 21:59:29;;;;;;;76.35;29.95;;;;;;;;;;5030271;28;97298;-75
2021/12/12 22:02:00;;;;;;;68.63;31.15;;;;;;;;;;5032020;27;95351;-75
2021/12/12 22:04:30;;;;;;;70.50;29.23;;;;;;;;;;5032914;27;96925;-75
2021/12/12 22:06:58;;;;;;;70.97;29.60;;;;;;;;;;5032753;27;96201;-75
2021/12/12 22:09:30;;;;;;;69.18;30.13;;;;;;;;;;5031953;28;96841;-75
2021/12/12 22:11:58;;;;;;;67.40;28.75;;;;;;;;;;5032921;27;96777;-75
2021/12/12 22:14:28;;;;;;;69.88;30.50;;;;;;;;;;5035634;28;97740;-75
2021/12/12 22:16:55;;;;;;;64.50;28.00;;;;;;;;;;5033033;28;96767;-75
2021/12/12 22:19:24;;;;;;;73.97;28.85;;;;;;;;;;5033517;28;97371;-74
2021/12/12 22:21:55;;;;;;;65.13;28.55;;;;;;;;;;5032430;27;95222;-74
2021/12/12 22:24:23;;;;;;;65.05;26.73;;;;;;;;;;5033543;27;96815;-75
2021/12/12 22:26:50;;;;;;;63.10;26.10;;;;;;;;;;5033460;27;97433;-75
2021/12/12 22:29:20;;;;;;;72.90;28.75;;;;;;;;;;5032035;27;95375;-75
2021/12/12 22:31:49;;;;;;;62.55;25.75;;;;;;;;;;5032700;27;96790;-75
2021/12/12 22:34:17;;;;;;;70.18;26.13;;;;;;;;;;5035915;27;97228;-75
2021/12/12 22:36:48;;;;;;;59.80;27.85;;;;;;;;;;5032936;28;96258;-74
2021/12/12 22:39:15;;;;;;;58.30;27.38;;;;;;;;;;5032210;27;97404;-75
2021/12/12 22:41:45;;;;;;;64.45;27.52;;;;;;;;;;5032654;27;95277;-75
2021/12/12 22:44:14;;;;;;;50.78;25.88;;;;;;;;;;5032357;27;97091;-76
2021/12/12 22:46:41;;;;;;;60.53;26.77;;;;;;;;;;5032740;27;97354;-75
2021/12/12 22:49:10;;;;;;;64.50;26.80;;;;;;;;;;5032729;27;96794;-75
2021/12/12 22:51:40;;;;;;;69.50;26.45;;;;;;;;;;5031130;27;96707;-75
2021/12/12 22:54:10;;;;;;;60.60;25.92;;;;;;;;;;5031798;28;97285;-76
2021/12/12 22:56:42;;;;;;;61.50;25.27;;;;;;;;;;5036296;27;95227;-75
2021/12/12 22:59:14;;;;;;;58.38;25.33;;;;;;;;;;5032037;27;97240;-75
2021/12/12 23:01:41;;;;;;;;;;;;;;;;;;5033198;27;95126;-75
2021/12/12 23:04:25;;;;;;;52.92;22.73;;;;;;;;;;5030127;27;126145;-75
2021/12/12 23:06:56;;;;;;;56.42;24.30;;;;;;;;;;5032732;28;97673;-75
2021/12/12 23:09:26;;;;;;;45.88;23.40;;;;;;;;;;5032905;27;95178;-76
2021/12/12 23:11:59;;;;;;;56.60;25.63;;;;;;;;;;5032122;27;96612;-76
2021/12/12 23:14:26;;;;;;;54.13;23.90;;;;;;;;;;5032203;28;97744;-75
2021/12/12 23:16:56;;;;;;;52.88;23.30;;;;;;;;;;5032481;27;95297;-75
2021/12/12 23:19:23;;;;;;;48.65;23.33;;;;;;;;;;5034837;28;96834;-75